Sachse's Hourly Summary for Tuesday, July 10, 2018
Hour Temp
(f)
RH
(%)
Solar Rad.
(MJ/m2)
Rainfall
(in)
Wind
(mph)
7/10/2018 12:00 AM 78 79 0 0 2.21
7/10/2018 1:00 AM 77 81 0 0 1.51
7/10/2018 2:00 AM 74 82 0 0 3.82
7/10/2018 3:00 AM 75 88 0 0 1.75
7/10/2018 4:00 AM 75 88 0 0 0
7/10/2018 5:00 AM 74 89 0 0 0
7/10/2018 6:00 AM 74 91 0 0 0.71
7/10/2018 7:00 AM 73 92 0.01 0 2.64
7/10/2018 8:00 AM 74 89 0.16 0 1.7
7/10/2018 9:00 AM 75 79 0.58 0 3.12
7/10/2018 10:00 AM 80 66 1.89 0 2.39
7/10/2018 11:00 AM 84 58 2.26 0 1.74
7/10/2018 12:00 PM 87 48 2.45 0 1.84
7/10/2018 1:00 PM 88 48 2.17 0 2.51
7/10/2018 2:00 PM 89 47 2.06 0 2.58
7/10/2018 3:00 PM 91 41 2.01 0 2.62
7/10/2018 4:00 PM 91 40 1.72 0 3.03
7/10/2018 5:00 PM 83 43 0.28 0 6.77
7/10/2018 6:00 PM 81 60 0.41 0 2.8
7/10/2018 7:00 PM 83 59 0.38 0 2.1
7/10/2018 8:00 PM 83 59 0.2 0 2.31
7/10/2018 9:00 PM 81 61 0.02 0 0.77
7/10/2018 10:00 PM 81 64 0 0 1.39
7/10/2018 11:00 PM 79 68 0 0 0
Data Summary 80 67 16.60 0.00 2.10